Time;durP1;ratioP1;P1;durP2;ratioP2;P2;SDS_P1;SDS_P2;PMS_P1;PMS_P2;Temp;Humidity;BMP_temperature;BMP_pressure;BME280_temperature;BME280_humidity;BME280_pressure;Samples;Min_cycle;Max_cycle;Signal;HPM_P1;HPM_P2
2022/12/23 00:01:53;;;;;;;16.45;14.68;;;7.70;99.90;;;;;;4996975;28;20216;-92
2022/12/23 00:04:20;;;;;;;18.80;14.73;;;7.80;99.90;;;;;;5010579;28;20210;-91
2022/12/23 00:06:49;;;;;;;18.55;14.45;;;7.90;99.90;;;;;;5015267;28;20190;-87
2022/12/23 00:09:16;;;;;;;22.00;14.95;;;8.00;99.90;;;;;;5006944;28;20206;-85
2022/12/23 00:17:24;;;;;;;22.25;15.30;;;8.30;99.90;;;;;;5028714;28;20273;-86
2022/12/23 00:19:54;;;;;;;19.45;15.40;;;8.30;99.90;;;;;;5013640;28;20290;-85
2022/12/23 00:23:03;;;;;;;21.13;14.75;;;8.20;99.90;;;;;;4985087;28;20198;-85
2022/12/23 00:25:10;;;;;;;22.08;15.90;;;8.20;99.90;;;;;;5008346;28;20208;-85
2022/12/23 00:27:41;;;;;;;19.88;16.05;;;8.20;99.90;;;;;;4989854;28;20185;-86
2022/12/23 00:30:09;;;;;;;24.25;16.10;;;8.10;99.90;;;;;;5004884;28;20217;-86
2022/12/23 00:32:40;;;;;;;18.02;14.85;;;8.00;99.90;;;;;;5007511;28;20232;-85
2022/12/23 00:44:34;;;;;;;19.17;14.98;;;7.30;99.90;;;;;;5025155;28;20211;-85
2022/12/23 00:47:03;;;;;;;18.40;15.43;;;7.30;99.90;;;;;;5008627;28;20423;-86
2022/12/23 00:49:50;;;;;;;23.20;16.55;;;7.40;99.90;;;;;;5008874;28;20484;-85
2022/12/23 00:52:19;;;;;;;21.10;15.05;;;7.60;99.90;;;;;;5015105;28;20242;-84
2022/12/23 00:54:46;;;;;;;20.27;15.95;;;7.70;99.90;;;;;;5005722;28;20205;-84
2022/12/23 00:57:49;;;;;;;20.55;17.38;;;7.70;99.90;;;;;;5018481;28;20224;-85
2022/12/23 01:05:35;;;;;;;18.85;14.55;;;8.00;99.90;;;;;;4988562;28;20185;-84
2022/12/23 01:09:50;;;;;;;16.00;13.93;;;8.10;99.90;;;;;;5012272;28;20165;-85
2022/12/23 01:12:20;;;;;;;20.20;16.02;;;7.90;99.90;;;;;;5012070;28;20236;-85
2022/12/23 01:14:55;;;;;;;19.35;15.35;;;7.80;99.90;;;;;;4986845;28;20213;-85
2022/12/23 01:17:29;;;;;;;17.20;13.95;;;7.80;99.90;;;;;;5026668;28;20217;-85
2022/12/23 01:20:01;;;;;;;21.38;15.95;;;7.90;99.90;;;;;;5010466;28;20193;-85
2022/12/23 01:22:28;;;;;;;19.58;14.75;;;8.00;99.90;;;;;;4992451;28;20202;-87
2022/12/23 01:24:56;;;;;;;17.27;14.25;;;8.20;99.90;;;;;;4999733;28;20237;-83
2022/12/23 01:27:24;;;;;;;15.48;13.15;;;8.20;99.90;;;;;;4990028;28;20265;-88
2022/12/23 01:29:57;;;;;;;15.73;13.05;;;8.20;99.90;;;;;;5015418;28;20552;-84
2022/12/23 01:32:26;;;;;;;16.02;13.30;;;8.00;99.90;;;;;;5001147;28;20206;-84
2022/12/23 01:34:53;;;;;;;19.95;14.32;;;7.50;99.90;;;;;;5007294;28;20225;-86
2022/12/23 01:37:22;;;;;;;19.23;15.07;;;7.30;99.90;;;;;;5013575;28;20233;-87
2022/12/23 01:39:49;;;;;;;16.80;13.20;;;7.10;99.90;;;;;;4994726;28;20201;-85
2022/12/23 01:45:22;;;;;;;13.95;12.48;;;6.80;99.90;;;;;;5013816;28;20221;-83
2022/12/23 01:48:08;;;;;;;16.05;12.63;;;6.40;99.90;;;;;;5034138;28;20192;-86
2022/12/23 01:50:59;;;;;;;13.02;11.07;;;6.20;99.90;;;;;;5039789;28;20223;-89
2022/12/23 01:53:33;;;;;;;15.20;11.90;;;6.10;99.90;;;;;;5038347;28;20227;-86
2022/12/23 01:56:18;;;;;;;15.35;10.82;;;6.20;99.90;;;;;;5006356;28;20339;-88
2022/12/23 01:58:57;;;;;;;13.50;11.13;;;5.90;99.90;;;;;;5014166;28;20247;-89
2022/12/23 02:04:22;;;;;;;15.43;10.73;;;5.80;99.90;;;;;;5011290;28;20225;-85
2022/12/23 02:09:49;;;;;;;12.63;10.52;;;5.80;99.90;;;;;;5013216;28;20201;-85
2022/12/23 02:13:13;;;;;;;13.50;10.48;;;5.90;99.90;;;;;;4993156;28;20267;-86
2022/12/23 02:16:18;;;;;;;14.75;10.48;;;6.00;99.90;;;;;;5012504;28;20277;-85
2022/12/23 02:19:16;;;;;;;12.60;10.13;;;5.90;99.90;;;;;;5007433;28;20268;-91
2022/12/23 02:22:06;;;;;;;14.93;10.77;;;5.90;99.90;;;;;;4994914;28;20197;-86
2022/12/23 02:28:39;;;;;;;14.30;10.98;;;5.70;99.90;;;;;;5031098;28;20168;-87
2022/12/23 02:39:03;;;;;;;16.20;10.55;;;5.60;99.90;;;;;;4910653;29;20313;-86
2022/12/23 02:41:58;;;;;;;15.77;12.27;;;5.70;99.90;;;;;;4922082;29;20207;-87
2022/12/23 02:45:18;;;;;;;13.77;10.50;;;5.60;99.90;;;;;;4947386;29;20355;-86
2022/12/23 02:47:59;;;;;;;12.90;10.10;;;5.50;99.90;;;;;;4925679;29;20199;-85
2022/12/23 02:50:32;;;;;;;12.93;10.20;;;5.60;99.90;;;;;;4928567;29;20216;-87
2022/12/23 02:53:14;;;;;;;11.43;10.27;;;5.80;99.90;;;;;;4920762;29;20254;-89
2022/12/23 02:55:45;;;;;;;11.38;10.13;;;5.40;99.90;;;;;;4941001;29;20200;-86
2022/12/23 02:58:15;;;;;;;13.90;10.20;;;5.50;99.90;;;;;;4903023;29;20223;-85
2022/12/23 03:00:44;;;;;;;10.10;8.93;;;5.60;99.90;;;;;;4943746;29;20225;-88
2022/12/23 03:03:11;;;;;;;16.92;12.85;;;5.50;99.90;;;;;;5005721;28;20469;-86
2022/12/23 03:05:43;;;;;;;13.30;10.38;;;5.50;99.90;;;;;;4986877;28;20214;-87
2022/12/23 03:08:27;;;;;;;10.98;9.48;;;5.40;99.90;;;;;;4987189;28;20217;-86
2022/12/23 03:11:13;;;;;;;15.88;11.48;;;5.50;99.90;;;;;;4982524;28;20201;-85
2022/12/23 03:14:09;;;;;;;16.52;11.23;;;5.80;99.90;;;;;;4986844;28;20197;-86
2022/12/23 03:16:45;;;;;;;17.40;10.50;;;5.90;99.90;;;;;;5018357;28;20477;-85
2022/12/23 03:19:31;;;;;;;14.10;10.38;;;6.10;99.90;;;;;;4971469;28;20212;-88
2022/12/23 03:22:35;;;;;;;13.57;10.60;;;6.00;99.90;;;;;;5011913;28;20209;-90
2022/12/23 03:25:13;;;;;;;15.13;10.43;;;6.10;99.90;;;;;;4915851;29;20240;-87
2022/12/23 03:27:43;;;;;;;13.30;9.85;;;6.00;99.90;;;;;;4971193;28;20213;-83
2022/12/23 03:30:14;;;;;;;13.77;10.43;;;6.20;99.90;;;;;;5018491;28;20197;-89
2022/12/23 03:32:53;;;;;;;13.88;10.60;;;6.20;99.90;;;;;;5015594;28;20252;-84
2022/12/23 03:35:26;;;;;;;13.30;9.50;;;6.20;99.90;;;;;;5002908;28;20241;-92
2022/12/23 03:37:57;;;;;;;14.18;11.43;;;6.20;99.90;;;;;;5027816;28;20184;-83
2022/12/23 03:40:51;;;;;;;13.75;10.20;;;6.30;99.90;;;;;;5018345;28;20237;-85
2022/12/23 03:43:56;;;;;;;13.10;10.63;;;6.40;99.90;;;;;;4963377;28;20593;-84
2022/12/23 03:46:33;;;;;;;9.95;8.57;;;6.30;99.90;;;;;;4968987;28;20210;-82
2022/12/23 03:49:07;;;;;;;12.63;9.45;;;6.30;99.90;;;;;;4986585;28;20521;-87
2022/12/23 03:51:45;;;;;;;10.85;9.48;;;6.20;99.90;;;;;;4986906;28;20209;-83
2022/12/23 03:54:18;;;;;;;15.10;11.07;;;6.40;99.90;;;;;;5014221;28;20212;-84
2022/12/23 03:56:57;;;;;;;15.25;10.82;;;6.20;99.90;;;;;;4995788;28;20200;-85
2022/12/23 03:59:33;;;;;;;11.95;9.95;;;6.40;99.90;;;;;;4994294;28;20381;-85
2022/12/23 04:02:35;;;;;;;15.18;12.70;;;6.40;99.90;;;;;;5009691;28;20217;-89
2022/12/23 04:05:21;;;;;;;13.45;10.13;;;6.40;99.90;;;;;;4988942;28;20209;-85
2022/12/23 04:08:12;;;;;;;15.82;12.27;;;6.30;99.90;;;;;;5003652;28;20201;-84
2022/12/23 04:10:39;;;;;;;14.55;11.00;;;6.30;99.90;;;;;;5004560;28;20267;-84
2022/12/23 04:13:08;;;;;;;13.20;11.70;;;6.40;99.90;;;;;;4991518;28;20213;-85
2022/12/23 04:15:40;;;;;;;13.50;11.55;;;6.40;99.90;;;;;;5001238;28;20213;-85
2022/12/23 04:18:10;;;;;;;15.80;11.50;;;6.30;99.90;;;;;;4984082;28;20284;-87
2022/12/23 04:20:37;;;;;;;14.93;11.57;;;6.40;99.90;;;;;;5001340;28;20241;-85
2022/12/23 04:23:06;;;;;;;14.75;10.88;;;6.50;99.90;;;;;;4988455;28;20200;-84
2022/12/23 04:25:36;;;;;;;12.07;10.73;;;6.70;99.90;;;;;;4992568;28;20216;-84
2022/12/23 04:28:04;;;;;;;12.98;11.57;;;6.80;99.90;;;;;;4988059;28;20201;-87
2022/12/23 04:30:32;;;;;;;15.88;11.70;;;6.90;99.90;;;;;;5012734;28;20633;-84
2022/12/23 04:33:02;;;;;;;17.35;11.85;;;7.00;99.90;;;;;;5000179;28;20224;-84
2022/12/23 04:35:30;;;;;;;16.77;12.65;;;6.80;99.90;;;;;;5006435;28;20239;-85
2022/12/23 04:38:00;;;;;;;12.85;11.52;;;6.70;99.90;;;;;;5011832;28;20224;-86
2022/12/23 04:40:27;;;;;;;12.57;11.27;;;6.70;99.90;;;;;;5009382;28;20204;-84
2022/12/23 04:42:55;;;;;;;11.75;10.60;;;6.80;99.90;;;;;;4987205;28;20576;-84
2022/12/23 04:45:23;;;;;;;15.43;12.02;;;6.90;99.90;;;;;;4983635;28;20225;-84
2022/12/23 04:47:54;;;;;;;14.57;12.23;;;6.80;99.90;;;;;;4992103;28;20240;-87
2022/12/23 04:50:21;;;;;;;14.38;10.60;;;6.80;99.90;;;;;;4983863;28;20221;-88
2022/12/23 04:52:58;;;;;;;14.07;11.45;;;6.80;99.90;;;;;;4994164;28;20513;-85
2022/12/23 04:55:27;;;;;;;14.70;10.98;;;6.70;99.90;;;;;;5001481;28;20225;-85
2022/12/23 04:57:54;;;;;;;12.77;10.55;;;6.70;99.90;;;;;;5007457;28;20215;-86
2022/12/23 05:01:06;;;;;;;12.05;10.77;;;6.70;99.90;;;;;;5008346;28;20193;-88
2022/12/23 05:03:37;;;;;;;12.45;9.93;;;6.70;99.90;;;;;;4984273;28;20196;-84
2022/12/23 05:06:05;;;;;;;14.75;11.00;;;6.70;99.90;;;;;;5018222;28;20201;-88
2022/12/23 05:08:39;;;;;;;12.55;10.07;;;6.70;99.90;;;;;;5016386;28;20212;-86
2022/12/23 05:11:09;;;;;;;13.45;10.00;;;6.80;99.90;;;;;;5003153;28;20197;-86
2022/12/23 05:13:39;;;;;;;13.95;11.00;;;6.90;99.90;;;;;;5003168;28;20204;-86
2022/12/23 05:16:11;;;;;;;11.32;9.45;;;6.90;99.90;;;;;;4987590;28;20182;-86
2022/12/23 05:18:38;;;;;;;12.70;10.98;;;6.90;99.90;;;;;;5003794;28;20205;-86
2022/12/23 05:21:10;;;;;;;13.48;11.95;;;7.00;99.90;;;;;;4987111;28;20206;-86
2022/12/23 05:23:39;;;;;;;13.80;11.25;;;7.10;99.90;;;;;;4984522;28;20202;-86
2022/12/23 05:26:08;;;;;;;12.55;11.25;;;7.30;99.90;;;;;;4999297;28;20213;-87
2022/12/23 05:28:35;;;;;;;14.75;11.02;;;7.30;99.90;;;;;;5017793;28;20228;-86
2022/12/23 05:31:06;;;;;;;12.05;10.85;;;7.20;99.90;;;;;;4990241;28;20671;-85
2022/12/23 05:33:34;;;;;;;13.48;12.07;;;7.10;99.90;;;;;;5015392;28;20656;-86
2022/12/23 05:36:01;;;;;;;14.23;10.65;;;7.20;99.90;;;;;;4993215;28;20225;-86
2022/12/23 05:38:31;;;;;;;12.55;9.95;;;7.10;99.90;;;;;;5011849;28;20264;-85
2022/12/23 05:40:58;;;;;;;11.27;9.90;;;7.20;99.90;;;;;;4974546;28;20492;-87
2022/12/23 05:43:28;;;;;;;12.32;10.35;;;7.20;99.90;;;;;;5003134;28;20300;-87
2022/12/23 05:45:58;;;;;;;12.90;9.02;;;7.10;99.90;;;;;;5012727;28;20394;-87
2022/12/23 05:48:25;;;;;;;13.25;11.82;;;7.10;99.90;;;;;;5000752;28;20496;-87
2022/12/23 05:50:55;;;;;;;13.40;11.00;;;7.30;99.90;;;;;;5008585;28;20205;-86
2022/12/23 05:53:24;;;;;;;12.77;11.00;;;7.30;99.90;;;;;;5001414;28;20231;-88
2022/12/23 05:55:52;;;;;;;10.73;9.63;;;7.20;99.90;;;;;;5013509;28;20265;-87
2022/12/23 05:58:19;;;;;;;10.98;9.65;;;7.30;99.90;;;;;;5004218;28;20205;-87
2022/12/23 06:00:50;;;;;;;12.05;10.00;;;7.20;99.90;;;;;;4996450;28;20237;-86
2022/12/23 06:03:25;;;;;;;11.70;9.98;;;7.30;99.90;;;;;;4993692;28;20194;-86
2022/12/23 06:05:53;;;;;;;10.80;9.65;;;7.30;99.90;;;;;;4993547;28;20250;-84
2022/12/23 06:08:24;;;;;;;11.88;8.77;;;7.40;99.90;;;;;;5016007;28;20224;-86
2022/12/23 06:10:54;;;;;;;13.10;10.60;;;7.40;99.90;;;;;;5032589;28;20214;-85
2022/12/23 06:13:24;;;;;;;10.82;9.55;;;7.30;99.90;;;;;;4995109;28;20201;-82
2022/12/23 06:15:56;;;;;;;10.23;9.27;;;7.40;99.90;;;;;;5015660;28;20265;-82
2022/12/23 06:18:26;;;;;;;12.23;9.18;;;7.40;99.90;;;;;;5018328;28;20213;-89
2022/12/23 06:20:55;;;;;;;12.10;10.05;;;7.90;99.90;;;;;;5028378;28;20209;-86
2022/12/23 06:23:22;;;;;;;13.25;9.90;;;7.70;99.90;;;;;;5021091;28;20197;-85
2022/12/23 06:26:08;;;;;;;12.05;9.82;;;7.70;99.90;;;;;;4989952;28;20292;-85
2022/12/23 06:28:35;;;;;;;9.80;8.90;;;7.70;99.90;;;;;;4988044;28;20194;-83
2022/12/23 06:31:06;;;;;;;11.00;9.88;;;7.70;99.90;;;;;;4993995;28;20201;-83
2022/12/23 06:33:33;;;;;;;10.38;8.30;;;7.70;99.90;;;;;;5015168;28;20223;-83
2022/12/23 06:36:03;;;;;;;10.15;9.00;;;7.50;99.90;;;;;;4994958;28;20359;-85
2022/12/23 06:38:31;;;;;;;10.90;8.88;;;7.50;99.90;;;;;;4986178;28;20221;-84
2022/12/23 06:41:06;;;;;;;10.18;9.18;;;7.60;99.90;;;;;;4996211;28;20216;-83
2022/12/23 06:43:38;;;;;;;9.07;8.27;;;7.50;99.90;;;;;;4977850;28;20213;-85
2022/12/23 06:46:07;;;;;;;10.95;9.13;;;7.40;99.90;;;;;;4996332;28;20309;-83
2022/12/23 06:48:35;;;;;;;10.35;8.65;;;7.40;99.90;;;;;;4985749;28;20209;-84
2022/12/23 06:51:03;;;;;;;13.10;9.40;;;7.40;99.90;;;;;;5012794;28;20213;-86
2022/12/23 06:53:34;;;;;;;11.70;9.82;;;7.40;99.90;;;;;;5017677;28;20280;-85
2022/12/23 06:56:02;;;;;;;11.93;9.50;;;7.40;99.90;;;;;;4985418;28;20430;-84
2022/12/23 06:58:30;;;;;;;11.18;10.10;;;7.50;99.90;;;;;;5016112;28;20756;-82
2022/12/23 07:00:59;;;;;;;10.10;9.10;;;7.60;99.90;;;;;;5002897;28;20433;-84
2022/12/23 07:03:26;;;;;;;10.13;9.13;;;7.50;99.90;;;;;;5011238;28;20290;-83
2022/12/23 07:05:54;;;;;;;10.27;9.15;;;7.50;99.90;;;;;;5008691;28;20288;-84
2022/12/23 07:08:22;;;;;;;10.60;9.50;;;7.50;99.90;;;;;;5005103;28;20217;-82
2022/12/23 07:11:00;;;;;;;10.50;9.20;;;7.50;99.90;;;;;;4989573;28;20200;-88
2022/12/23 07:13:30;;;;;;;14.73;10.43;;;7.50;99.90;;;;;;5018087;28;20196;-88
2022/12/23 07:16:11;;;;;;;10.45;9.38;;;7.40;99.90;;;;;;4994097;28;20258;-81
2022/12/23 07:18:39;;;;;;;10.43;8.60;;;7.60;99.90;;;;;;5015052;28;20198;-83
2022/12/23 07:21:09;;;;;;;10.88;9.63;;;7.60;99.90;;;;;;5007932;28;20260;-81
2022/12/23 07:23:52;;;;;;;10.80;8.90;;;7.60;99.90;;;;;;4991486;28;20220;-82
2022/12/23 07:26:20;;;;;;;11.45;9.98;;;7.50;99.90;;;;;;5003352;28;20209;-86
2022/12/23 07:28:49;;;;;;;10.75;9.30;;;7.50;99.90;;;;;;4992248;28;20267;-84
2022/12/23 07:31:17;;;;;;;10.52;9.52;;;7.60;99.90;;;;;;4993061;28;20253;-84
2022/12/23 07:33:45;;;;;;;12.07;8.07;;;7.60;99.90;;;;;;5018142;28;20198;-84
2022/12/23 07:36:12;;;;;;;8.90;8.00;;;7.60;99.90;;;;;;4977527;28;20217;-84
2022/12/23 07:38:40;;;;;;;9.40;8.65;;;7.60;99.90;;;;;;5021648;28;20197;-87
2022/12/23 07:41:09;;;;;;;10.00;8.82;;;7.40;99.90;;;;;;4987279;28;20213;-86
2022/12/23 07:43:40;;;;;;;9.60;8.05;;;7.50;99.90;;;;;;4994309;28;20543;-86
2022/12/23 07:46:09;;;;;;;12.82;8.98;;;7.50;99.90;;;;;;5016699;28;20264;-86
2022/12/23 07:48:40;;;;;;;12.15;7.43;;;7.50;99.90;;;;;;4999726;28;20209;-88
2022/12/23 07:51:10;;;;;;;10.20;9.05;;;7.50;99.90;;;;;;4991458;28;20209;-85
2022/12/23 07:53:38;;;;;;;11.70;8.55;;;7.60;99.90;;;;;;4979667;28;20206;-84
2022/12/23 07:56:08;;;;;;;8.90;8.10;;;7.60;99.90;;;;;;4985668;28;20387;-84
2022/12/23 07:58:38;;;;;;;7.38;6.68;;;7.80;99.90;;;;;;4983969;28;20251;-88
2022/12/23 08:01:08;;;;;;;8.65;7.50;;;7.90;99.90;;;;;;4981047;28;20205;-88
2022/12/23 08:03:39;;;;;;;7.18;6.47;;;8.10;99.90;;;;;;5017448;28;20210;-84
2022/12/23 08:06:35;;;;;;;12.00;8.50;;;8.40;99.90;;;;;;5087878;23;20258;-87
2022/12/23 08:09:08;;;;;;;10.20;8.45;;;8.40;99.90;;;;;;4964268;28;20204;-88
2022/12/23 08:15:55;;;;;;;7.90;7.10;;;8.40;99.90;;;;;;4996215;28;20186;-88
2022/12/23 08:18:23;;;;;;;11.02;7.60;;;8.30;99.90;;;;;;4972006;28;20234;-88
2022/12/23 08:20:55;;;;;;;9.23;6.53;;;8.20;99.90;;;;;;4972283;28;20207;-86
2022/12/23 08:43:35;;;;;;;9.73;6.50;;;8.80;99.90;;;;;;4987969;28;20183;-89
2022/12/23 08:50:03;;;;;;;12.35;9.85;;;8.90;99.90;;;;;;4998469;28;20180;-87
2022/12/23 08:56:22;;;;;;;18.67;13.25;;;8.60;99.90;;;;;;4991157;28;20231;-87
2022/12/23 08:58:52;;;;;;;12.65;10.07;;;8.60;99.90;;;;;;4953887;28;20223;-88
2022/12/23 09:01:29;;;;;;;10.45;8.13;;;8.80;99.90;;;;;;4974587;28;20465;-88
2022/12/23 09:03:57;;;;;;;8.63;7.65;;;8.90;99.90;;;;;;4974313;28;20190;-88
2022/12/23 09:06:27;;;;;;;11.85;8.00;;;9.10;99.90;;;;;;4958205;28;20236;-87
2022/12/23 09:08:57;;;;;;;9.43;7.97;;;8.90;99.90;;;;;;4968744;28;20274;-87
2022/12/23 09:11:27;;;;;;;8.60;7.70;;;9.00;99.90;;;;;;4988951;28;20210;-87
2022/12/23 09:13:56;;;;;;;15.07;9.55;;;9.10;99.90;;;;;;4967865;28;20217;-87
2022/12/23 09:16:24;;;;;;;10.85;9.32;;;9.10;99.90;;;;;;4969530;28;20271;-87
2022/12/23 09:35:28;;;;;;;8.88;7.53;;;9.90;99.90;;;;;;6163982;22;1356218;-90
2022/12/23 09:37:55;;;;;;;9.68;7.63;;;10.10;99.90;;;;;;6269046;22;20177;-91
2022/12/23 09:40:22;;;;;;;10.60;7.07;;;10.00;99.90;;;;;;6266325;23;20544;-90
2022/12/23 09:43:01;;;;;;;12.15;7.70;;;10.20;99.90;;;;;;6266406;22;20224;-86
2022/12/23 09:45:53;;;;;;;10.32;6.40;;;10.00;99.90;;;;;;6264996;23;20194;-89
2022/12/23 09:48:29;;;;;;;10.40;6.45;;;10.10;99.90;;;;;;6263708;23;20167;-89
2022/12/23 09:50:57;;;;;;;15.85;8.05;;;9.80;99.90;;;;;;6266985;22;20179;-88
2022/12/23 09:53:31;;;;;;;9.57;8.25;;;9.40;99.90;;;;;;6264390;22;20233;-87
2022/12/23 09:56:11;;;;;;;12.35;9.70;;;9.40;99.90;;;;;;6264883;23;20195;-87
2022/12/23 09:58:59;;;;;;;10.45;6.00;;;9.50;99.90;;;;;;6266239;23;20167;-90
2022/12/23 10:01:29;;;;;;;12.38;8.85;;;9.40;99.90;;;;;;6267962;22;20201;-91
2022/12/23 10:04:17;;;;;;;12.75;8.57;;;9.50;99.90;;;;;;6266805;23;20205;-91
2022/12/23 10:06:51;;;;;;;15.57;6.80;;;9.50;99.90;;;;;;6264995;22;20177;-87
2022/12/23 10:09:27;;;;;;;8.77;6.32;;;9.40;99.90;;;;;;6264488;22;20207;-87
2022/12/23 10:11:55;;;;;;;9.45;5.90;;;9.30;99.90;;;;;;6265898;23;20207;-90
2022/12/23 10:14:32;;;;;;;7.85;5.82;;;9.60;99.90;;;;;;6268985;23;20194;-90
2022/12/23 10:28:38;;;;;;;6.53;5.72;;;10.40;99.90;;;;;;6280779;22;20159;-86
2022/12/23 10:42:37;;;;;;;6.63;5.43;;;10.30;99.90;;;;;;6296282;22;20210;-88
2022/12/23 10:45:40;;;;;;;4.82;4.20;;;10.30;99.90;;;;;;6279210;22;20232;-89
2022/12/23 10:48:35;;;;;;;7.40;3.55;;;10.30;99.90;;;;;;6279707;22;20183;-86
2022/12/23 10:51:37;;;;;;;6.25;4.78;;;10.30;99.90;;;;;;6279336;22;20169;-90
2022/12/23 10:54:07;;;;;;;4.60;4.20;;;10.20;99.90;;;;;;6300779;22;20172;-88
2022/12/23 10:56:34;;;;;;;5.85;4.30;;;10.50;99.90;;;;;;6265960;22;20310;-89
2022/12/23 10:59:46;;;;;;;6.45;3.85;;;10.70;99.90;;;;;;6267210;22;20217;-88
2022/12/23 11:02:14;;;;;;;9.73;3.97;;;10.90;99.90;;;;;;6266538;22;20191;-90
2022/12/23 11:04:45;;;;;;;3.60;2.78;;;11.10;99.90;;;;;;6292144;22;20357;-90
2022/12/23 11:07:25;;;;;;;5.35;2.92;;;10.90;99.90;;;;;;6266165;22;20199;-90
2022/12/23 11:10:20;;;;;;;2.92;2.53;;;11.00;99.90;;;;;;6271402;22;20197;-90
2022/12/23 11:18:05;;;;;;;3.20;2.90;;;10.90;99.90;;;;;;6189253;22;20194;-92
2022/12/23 11:20:34;;;;;;;4.35;3.45;;;10.80;99.90;;;;;;6181875;23;20210;-91
2022/12/23 11:33:53;;;;;;;5.77;3.17;;;10.80;99.90;;;;;;6183514;22;1257791;-90
2022/12/23 11:36:26;;;;;;;5.43;3.00;;;10.60;99.90;;;;;;6239981;23;20186;-89
2022/12/23 11:39:16;;;;;;;5.28;4.28;;;10.50;99.90;;;;;;6238660;22;20201;-90
2022/12/23 11:41:46;;;;;;;2.42;1.88;;;10.50;99.90;;;;;;6247584;23;20204;-91
2022/12/23 11:44:26;;;;;;;3.50;2.63;;;10.50;99.90;;;;;;6243355;22;20220;-90
2022/12/23 11:57:47;;;;;;;3.80;3.00;;;11.00;99.90;;;;;;6152199;22;20206;-88
2022/12/23 14:20:54;;;;;;;6.20;4.25;;;11.10;99.90;;;;;;6191539;22;20190;-90
2022/12/23 15:47:41;;;;;;;9.20;6.53;;;10.60;99.90;;;;;;6199649;22;20216;-91
2022/12/23 16:46:49;;;;;;;10.60;9.52;;;10.80;99.90;;;;;;6174886;22;20194;-90
2022/12/23 16:49:19;;;;;;;12.55;11.00;;;10.90;99.90;;;;;;6237542;23;20212;-90
2022/12/23 16:51:46;;;;;;;11.95;10.65;;;10.90;99.90;;;;;;6236109;23;20189;-87
2022/12/23 16:54:16;;;;;;;12.05;10.10;;;10.90;99.90;;;;;;6232196;23;20170;-90
2022/12/23 16:56:47;;;;;;;15.60;12.18;;;11.00;99.90;;;;;;6231523;23;20431;-89
2022/12/23 16:59:16;;;;;;;15.65;13.13;;;11.00;99.90;;;;;;6233363;23;20184;-89
2022/12/23 17:01:47;;;;;;;14.68;12.73;;;11.10;99.90;;;;;;6236771;23;20208;-89
2022/12/23 17:06:50;;;;;;;20.60;11.43;;;11.20;99.90;;;;;;6238061;22;20268;-90
2022/12/23 17:09:18;;;;;;;15.07;12.38;;;11.20;99.90;;;;;;6236411;23;20528;-92
2022/12/23 17:11:48;;;;;;;15.85;11.57;;;11.20;99.90;;;;;;6234025;23;20185;-93
2022/12/23 17:14:22;;;;;;;13.90;12.00;;;11.30;99.90;;;;;;6232805;23;20174;-91
2022/12/23 17:16:50;;;;;;;16.83;12.40;;;11.20;99.90;;;;;;6233563;23;20202;-91
2022/12/23 17:19:18;;;;;;;18.35;14.68;;;11.20;99.90;;;;;;6232004;23;20179;-91
2022/12/23 17:22:00;;;;;;;21.80;16.00;;;11.00;99.90;;;;;;6232335;23;20197;-91
2022/12/23 17:24:27;;;;;;;18.50;15.95;;;11.10;99.90;;;;;;6232901;23;20175;-90
2022/12/23 17:26:58;;;;;;;22.70;17.58;;;11.10;99.90;;;;;;6236218;23;20189;-92
2022/12/23 17:29:30;;;;;;;22.15;16.83;;;11.10;99.90;;;;;;6157908;22;21628;-88
2022/12/23 17:31:57;;;;;;;17.23;15.32;;;11.20;99.90;;;;;;6204951;23;20171;-90
2022/12/23 17:34:24;;;;;;;18.45;14.57;;;11.00;99.90;;;;;;6206543;23;20191;-90
2022/12/23 17:36:52;;;;;;;23.63;17.17;;;11.00;99.90;;;;;;6183471;23;20183;-91
2022/12/23 17:39:20;;;;;;;20.80;15.18;;;10.90;99.90;;;;;;6205763;23;20203;-91
2022/12/23 17:41:48;;;;;;;18.80;14.98;;;10.60;99.90;;;;;;6206609;23;20195;-92
2022/12/23 17:44:16;;;;;;;18.88;14.65;;;10.60;99.90;;;;;;6209397;23;20175;-91
2022/12/23 17:49:25;;;;;;;21.05;15.07;;;10.90;99.90;;;;;;6241365;22;20233;-92
2022/12/23 17:54:35;;;;;;;19.80;14.27;;;11.00;99.90;;;;;;6211643;23;20174;-92
2022/12/23 18:02:42;;;;;;;19.67;13.70;;;11.00;99.90;;;;;;6207751;22;20199;-92
2022/12/23 18:05:25;;;;;;;16.30;13.25;;;11.10;99.90;;;;;;6208491;23;20178;-92
2022/12/23 18:07:58;;;;;;;20.55;15.13;;;11.10;99.90;;;;;;6210196;23;20179;-92
2022/12/23 18:10:36;;;;;;;25.02;17.40;;;11.10;99.90;;;;;;6183521;23;20179;-91
2022/12/23 18:21:19;;;;;;;25.13;17.42;;;10.90;99.90;;;;;;6240718;22;20190;-91
2022/12/23 18:26:37;;;;;;;20.85;17.02;;;10.70;99.90;;;;;;6222248;23;20198;-93
2022/12/23 19:01:42;;;;;;;33.75;20.92;;;10.20;99.90;;;;;;6161201;22;20209;-91
2022/12/23 19:04:31;;;;;;;26.65;17.25;;;10.10;99.90;;;;;;6236217;23;20172;-90
2022/12/23 19:07:01;;;;;;;22.73;16.13;;;10.00;99.90;;;;;;6206425;22;20213;-91
2022/12/23 19:09:31;;;;;;;31.23;17.73;;;9.70;99.90;;;;;;6235574;23;20162;-91
2022/12/23 19:12:05;;;;;;;25.77;17.52;;;9.50;99.90;;;;;;6234851;23;20370;-91
2022/12/23 19:14:33;;;;;;;24.33;16.83;;;9.40;99.90;;;;;;6233217;23;20180;-92
2022/12/23 19:17:04;;;;;;;24.48;19.08;;;9.50;99.90;;;;;;6231844;23;20218;-90
2022/12/23 20:08:16;;;;;;;28.58;17.00;;;9.70;99.90;;;;;;6247851;22;20175;-89
2022/12/23 21:07:28;;;;;;;30.38;22.40;;;9.30;99.90;;;;;;6187193;22;20410;-91
2022/12/23 21:23:07;;;;;;;39.38;23.23;;;8.80;99.90;;;;;;6162661;23;20176;-90
2022/12/23 22:07:45;;;;;;;30.27;19.50;;;8.30;99.90;;;;;;6203072;22;20207;-91
2022/12/23 22:10:12;;;;;;;27.85;20.90;;;8.30;99.90;;;;;;6240588;23;20170;-89
2022/12/23 22:12:40;;;;;;;28.85;18.58;;;8.30;99.90;;;;;;6239191;23;20157;-90
2022/12/23 22:15:07;;;;;;;26.73;20.45;;;8.30;99.90;;;;;;6233347;23;20211;-89
2022/12/23 22:17:37;;;;;;;27.23;18.38;;;8.30;99.90;;;;;;6232594;23;20528;-89
2022/12/23 22:20:07;;;;;;;26.17;19.88;;;8.40;99.90;;;;;;6235586;23;20165;-87
2022/12/23 22:22:33;;;;;;;25.10;19.40;;;8.30;99.90;;;;;;6234796;23;20195;-88
2022/12/23 22:25:03;;;;;;;27.15;17.23;;;8.20;99.90;;;;;;6237747;23;20177;-89
2022/12/23 22:27:37;;;;;;;30.25;20.50;;;8.30;99.90;;;;;;6217287;23;20154;-86
2022/12/23 22:30:06;;;;;;;26.92;20.45;;;8.40;99.90;;;;;;6241442;23;20212;-92
2022/12/23 22:56:55;;;;;;;23.55;17.35;;;8.20;99.90;;;;;;6221374;22;20263;-85
2022/12/23 22:59:24;;;;;;;20.55;15.90;;;8.20;99.90;;;;;;6237545;23;20176;-85
2022/12/23 23:01:53;;;;;;;31.73;20.60;;;8.30;99.90;;;;;;6236428;23;20235;-87
2022/12/23 23:04:21;;;;;;;25.13;15.98;;;8.30;99.90;;;;;;6240826;23;20150;-83
2022/12/23 23:06:48;;;;;;;22.23;15.35;;;8.30;99.90;;;;;;6231738;23;20184;-85
2022/12/23 23:09:17;;;;;;;25.60;16.65;;;8.30;99.90;;;;;;6210209;23;20184;-84
2022/12/23 23:12:25;;;;;;;23.30;14.75;;;8.20;99.90;;;;;;6235330;23;20165;-84
2022/12/23 23:14:52;;;;;;;24.42;16.05;;;8.30;99.90;;;;;;6229775;23;20194;-82
2022/12/23 23:17:25;;;;;;;25.65;16.42;;;8.30;99.90;;;;;;6229999;23;20190;-83
2022/12/23 23:19:55;;;;;;;26.38;17.52;;;8.30;99.90;;;;;;6229339;23;20183;-85
2022/12/23 23:22:24;;;;;;;36.78;26.05;;;8.20;99.90;;;;;;6228576;23;20200;-87
2022/12/23 23:24:52;;;;;;;31.63;19.55;;;8.30;99.90;;;;;;6230366;23;20183;-85
2022/12/23 23:27:22;;;;;;;22.00;14.02;;;8.40;99.90;;;;;;6226794;23;20407;-85
2022/12/23 23:29:49;;;;;;;18.30;13.70;;;8.40;99.90;;;;;;6223609;23;20192;-85
2022/12/23 23:32:15;;;;;;;17.15;14.13;;;8.50;99.90;;;;;;6226084;23;20177;-85
2022/12/23 23:34:43;;;;;;;15.02;10.63;;;8.50;99.90;;;;;;6231104;23;20183;-86
2022/12/23 23:37:10;;;;;;;21.25;11.75;;;8.50;99.90;;;;;;6232636;23;20219;-87
2022/12/23 23:39:36;;;;;;;20.67;12.88;;;8.40;99.90;;;;;;6229017;23;20183;-84
2022/12/23 23:42:04;;;;;;;15.65;11.45;;;8.40;99.90;;;;;;6230260;23;20194;-84
2022/12/23 23:44:31;;;;;;;14.55;11.73;;;8.50;99.90;;;;;;6228826;23;20177;-86
2022/12/23 23:46:59;;;;;;;16.70;13.15;;;8.70;99.90;;;;;;6230419;23;20203;-85
2022/12/23 23:49:29;;;;;;;14.57;11.55;;;9.00;99.90;;;;;;6233067;23;20180;-84
2022/12/23 23:52:01;;;;;;;14.20;11.40;;;8.90;99.90;;;;;;6234338;23;20236;-86
2022/12/23 23:54:33;;;;;;;14.48;11.02;;;8.80;99.90;;;;;;6237324;23;20168;-85
2022/12/23 23:57:03;;;;;;;15.27;11.07;;;8.70;99.90;;;;;;6232968;23;20185;-86
2022/12/23 23:59:32;;;;;;;15.48;11.05;;;8.80;99.90;;;;;;6224439;23;20205;-85
